Aprelevka, Russia
Current Conditions -  °F | °C
As of 3:00 AM on Wednesday 26 Nov 2014 (Local Time) from UUWW Reporting Station
Haze Haze  
Wind Chill: 11°   Ceiling: 200
Heat Index: 19°   Visibility: 1.7mi
Dew Point: 18°   Wind: 7mph
Humidity: 93%   Direction: 230°SW
Pressure: 30.48"   Gusts: NA
Location:  55.54°N, 37.07°E
Report Text: UUWW 260000Z 23003MPS 2800 BR OVC002 M07/M08 Q1032 24290050NOSIG
Loading
Personal Weather Stations






























Interactive Weather Map New forecast layout! Learn more

10-Day Weather Forecast

Advertisements
Track Severe Weather on mobile